Time;durP1;ratioP1;P1;durP2;ratioP2;P2;SDS_P1;SDS_P2;PMS_P1;PMS_P2;Temp;Humidity;BMP_temperature;BMP_pressure;BME280_temperature;BME280_humidity;BME280_pressure;Samples;Min_cycle;Max_cycle;Signal;HPM_P1;HPM_P2
2022/10/16 00:00:44;;;;;;;2.00;0.60;;;;;;;16.52;96.44;98515.31;4907856;29;20220;-64
2022/10/16 00:03:11;;;;;;;4.00;0.97;;;;;;;16.44;97.60;98516.25;4906848;29;20248;-64
2022/10/16 00:05:43;;;;;;;1.40;0.70;;;;;;;16.34;99.46;98527.13;4908700;29;20252;-64
2022/10/16 00:08:11;;;;;;;2.10;0.60;;;;;;;16.27;99.72;98518.38;4905412;29;20229;-64
2022/10/16 00:10:38;;;;;;;3.57;0.60;;;;;;;16.20;100.00;98518.34;4909074;29;20292;-64
2022/10/16 00:13:06;;;;;;;2.43;0.70;;;;;;;16.16;100.00;98500.44;4890655;29;20295;-64
2022/10/16 00:15:36;;;;;;;4.53;0.80;;;;;;;16.17;100.00;98504.72;4914869;29;20237;-64
2022/10/16 00:18:03;;;;;;;3.20;0.70;;;;;;;16.19;99.13;98500.06;4909342;29;20251;-64
2022/10/16 00:20:31;;;;;;;4.10;0.80;;;;;;;16.19;99.06;98507.97;4913529;29;20236;-64
2022/10/16 00:22:57;;;;;;;4.30;0.60;;;;;;;16.19;99.77;98505.34;4911706;29;20571;-64
2022/10/16 00:25:24;;;;;;;1.17;0.70;;;;;;;16.15;99.98;98507.56;4909333;29;20727;-64
2022/10/16 00:27:51;;;;;;;2.57;0.57;;;;;;;16.12;100.00;98515.00;4912353;29;20339;-64
2022/10/16 00:30:17;;;;;;;2.03;0.60;;;;;;;16.06;100.00;98503.41;4909354;29;20694;-64
2022/10/16 00:32:45;;;;;;;3.47;0.47;;;;;;;15.98;100.00;98503.53;4914247;29;20244;-64
2022/10/16 00:35:12;;;;;;;1.90;0.70;;;;;;;16.12;99.42;98509.72;4908910;29;20232;-64
2022/10/16 00:37:38;;;;;;;2.50;0.70;;;;;;;16.14;100.00;98505.91;4912538;29;20241;-64
2022/10/16 00:40:06;;;;;;;3.40;0.80;;;;;;;16.11;100.00;98508.09;4909351;29;20241;-64
2022/10/16 00:42:32;;;;;;;2.40;0.50;;;;;;;16.08;100.00;98502.22;4913362;29;20237;-64
2022/10/16 00:44:59;;;;;;;6.77;1.03;;;;;;;16.07;100.00;98505.03;4914043;29;20295;-64
2022/10/16 00:47:29;;;;;;;2.20;0.60;;;;;;;16.03;100.00;98511.69;4907361;29;20249;-64
2022/10/16 00:50:03;;;;;;;2.60;0.60;;;;;;;16.00;100.00;98522.59;4912006;29;20583;-64
2022/10/16 00:52:29;;;;;;;4.60;0.90;;;;;;;15.96;100.00;98527.41;4908826;29;20237;-64
2022/10/16 00:54:57;;;;;;;2.83;0.80;;;;;;;15.93;100.00;98515.47;4913610;29;20396;-64
2022/10/16 00:57:26;;;;;;;3.40;0.77;;;;;;;15.90;100.00;98525.56;4910835;29;20270;-64
2022/10/16 00:59:54;;;;;;;2.53;0.87;;;;;;;15.84;100.00;98526.28;4915169;29;20716;-64
2022/10/16 01:02:20;;;;;;;4.90;0.60;;;;;;;15.82;100.00;98523.03;4912568;29;20251;-64
2022/10/16 01:04:50;;;;;;;4.23;0.93;;;;;;;15.79;100.00;98516.28;4916018;29;20240;-64
2022/10/16 01:07:27;;;;;;;3.20;0.97;;;;;;;15.78;100.00;98522.56;4911732;29;20240;-64
2022/10/16 01:10:05;;;;;;;3.60;0.73;;;;;;;15.75;100.00;98526.41;4914172;29;20244;-64
2022/10/16 01:12:39;;;;;;;2.00;1.00;;;;;;;15.72;100.00;98520.69;4910557;29;20229;-64
2022/10/16 01:15:11;;;;;;;2.57;0.80;;;;;;;15.71;100.00;98517.25;4909817;29;20289;-64
2022/10/16 01:17:44;;;;;;;5.07;0.90;;;;;;;15.68;100.00;98508.88;4895539;29;20232;-64
2022/10/16 01:20:17;;;;;;;2.57;0.60;;;;;;;15.61;100.00;98509.63;4908568;29;20305;-64
2022/10/16 01:23:03;;;;;;;5.00;0.80;;;;;;;15.57;100.00;98513.63;4913683;29;20245;-64
2022/10/16 01:25:43;;;;;;;6.17;0.90;;;;;;;15.55;100.00;98520.91;4891455;29;20234;-64
2022/10/16 01:28:14;;;;;;;4.97;1.00;;;;;;;15.51;100.00;98519.63;4910458;29;20711;-64
2022/10/16 01:30:42;;;;;;;1.30;0.70;;;;;;;15.50;100.00;98520.63;4911558;29;20237;-64
2022/10/16 01:33:15;;;;;;;6.17;0.87;;;;;;;15.49;100.00;98513.75;4910696;29;20251;-64
2022/10/16 01:35:47;;;;;;;1.53;1.00;;;;;;;15.48;100.00;98523.47;4912780;29;20315;-64
2022/10/16 01:38:18;;;;;;;3.50;0.93;;;;;;;15.46;100.00;98520.22;4909583;29;20243;-64
2022/10/16 01:40:51;;;;;;;6.10;0.70;;;;;;;15.42;100.00;98521.56;4914102;29;20762;-64
2022/10/16 01:43:23;;;;;;;2.40;0.90;;;;;;;15.40;100.00;98518.31;4908555;29;20454;-64
2022/10/16 01:45:53;;;;;;;1.73;1.00;;;;;;;15.42;100.00;98512.84;4912740;29;20287;-64
2022/10/16 01:48:22;;;;;;;3.13;0.80;;;;;;;15.42;100.00;98511.06;4909831;29;20236;-64
2022/10/16 01:50:55;;;;;;;4.30;0.80;;;;;;;15.38;100.00;98503.72;4904655;29;20322;-64
2022/10/16 01:53:24;;;;;;;6.27;0.93;;;;;;;15.35;100.00;98499.66;4911147;29;20232;-64
2022/10/16 01:55:53;;;;;;;6.23;1.20;;;;;;;15.30;100.00;98500.22;4903868;29;20294;-64
2022/10/16 01:58:24;;;;;;;3.93;1.03;;;;;;;15.28;100.00;98509.28;4905591;29;20798;-64
2022/10/16 02:00:54;;;;;;;2.63;0.70;;;;;;;15.25;100.00;98504.38;4910998;29;20722;-64
2022/10/16 02:03:23;;;;;;;2.53;1.00;;;;;;;15.23;100.00;98498.50;4909509;29;20231;-64
2022/10/16 02:05:52;;;;;;;11.73;1.17;;;;;;;15.17;100.00;98506.09;4911311;29;20659;-64
2022/10/16 02:08:19;;;;;;;2.60;0.70;;;;;;;15.14;100.00;98508.31;4908990;29;20613;-64
2022/10/16 02:10:46;;;;;;;3.00;0.70;;;;;;;15.12;100.00;98513.72;4913222;29;20247;-64
2022/10/16 02:13:16;;;;;;;11.53;1.00;;;;;;;15.06;100.00;98514.47;4907761;29;20295;-64
2022/10/16 02:15:46;;;;;;;3.67;1.00;;;;;;;15.02;100.00;98519.28;4910989;29;20242;-64
2022/10/16 02:18:13;;;;;;;8.70;1.20;;;;;;;15.04;100.00;98522.53;4908947;29;20780;-64
2022/10/16 02:20:49;;;;;;;9.80;1.37;;;;;;;14.99;100.00;98519.66;4911986;29;20235;-64
2022/10/16 02:23:24;;;;;;;12.03;1.03;;;;;;;15.01;100.00;98512.38;4910737;29;20242;-64
2022/10/16 02:25:53;;;;;;;9.17;1.07;;;;;;;14.93;100.00;98517.75;4911822;29;20544;-64
2022/10/16 02:28:27;;;;;;;7.70;1.07;;;;;;;14.92;100.00;98518.75;4908404;29;20242;-64
2022/10/16 02:30:59;;;;;;;5.17;1.10;;;;;;;14.95;100.00;98517.53;4910577;29;20249;-64
2022/10/16 02:33:27;;;;;;;2.90;0.90;;;;;;;14.88;100.00;98517.47;4908960;29;20247;-64
2022/10/16 02:35:55;;;;;;;5.80;0.80;;;;;;;14.85;100.00;98516.00;4911995;29;20239;-64
2022/10/16 02:38:23;;;;;;;3.50;0.80;;;;;;;14.76;100.00;98517.91;4908657;29;20299;-64
2022/10/16 02:40:50;;;;;;;5.90;0.80;;;;;;;14.72;100.00;98519.28;4909548;29;20235;-64
2022/10/16 02:43:17;;;;;;;3.50;0.83;;;;;;;14.71;100.00;98524.72;4907714;29;20227;-64
2022/10/16 02:45:43;;;;;;;4.37;0.80;;;;;;;14.72;100.00;98528.97;4910695;29;20258;-64
2022/10/16 02:48:12;;;;;;;4.40;1.00;;;;;;;14.73;100.00;98530.59;4908044;29;20238;-64
2022/10/16 02:50:38;;;;;;;6.13;0.93;;;;;;;14.72;100.00;98526.34;4895199;29;20621;-64
2022/10/16 02:53:05;;;;;;;4.40;0.60;;;;;;;14.69;100.00;98521.44;4908043;29;20242;-64
2022/10/16 02:55:31;;;;;;;6.93;0.80;;;;;;;14.63;100.00;98532.66;4909068;29;20232;-64
2022/10/16 02:57:58;;;;;;;3.40;0.80;;;;;;;14.60;100.00;98532.00;4909819;29;20605;-64
2022/10/16 03:03:03;;;;;;;3.40;0.93;;;;;;;14.55;100.00;98523.03;4897673;29;20239;-63
2022/10/16 03:05:31;;;;;;;4.53;0.90;;;;;;;14.52;100.00;98526.84;4903512;29;20286;-63
2022/10/16 03:08:00;;;;;;;9.40;1.87;;;;;;;14.50;100.00;98520.94;4902297;29;20240;-63
2022/10/16 03:10:26;;;;;;;1.97;0.80;;;;;;;14.52;100.00;98518.13;4897181;29;20589;-64
2022/10/16 03:12:53;;;;;;;4.50;1.30;;;;;;;14.55;100.00;98523.84;4901952;29;20240;-64
2022/10/16 03:15:19;;;;;;;4.10;1.03;;;;;;;14.53;100.00;98517.97;4898610;29;20259;-64
2022/10/16 03:17:46;;;;;;;2.17;0.90;;;;;;;14.55;100.00;98520.41;4900459;29;20248;-64
2022/10/16 03:20:12;;;;;;;3.90;0.73;;;;;;;14.52;100.00;98521.59;4896711;29;20239;-64
2022/10/16 03:22:40;;;;;;;5.00;1.17;;;;;;;14.54;100.00;98516.13;4902552;29;20249;-63
2022/10/16 03:25:08;;;;;;;4.93;1.07;;;;;;;14.57;100.00;98510.53;4900291;29;20233;-63
2022/10/16 03:27:34;;;;;;;5.80;1.10;;;;;;;14.60;100.00;98516.25;4903551;29;20616;-63
2022/10/16 03:30:01;;;;;;;5.83;1.30;;;;;;;14.72;100.00;98505.34;4894909;29;20266;-63
2022/10/16 03:32:28;;;;;;;2.53;0.90;;;;;;;14.79;100.00;98513.28;4901601;29;20234;-63
2022/10/16 03:34:56;;;;;;;3.03;1.00;;;;;;;14.86;100.00;98509.75;4901398;29;20240;-63
2022/10/16 03:37:22;;;;;;;3.30;0.90;;;;;;;14.90;100.00;98512.84;4899318;29;20228;-63
2022/10/16 03:39:50;;;;;;;5.43;1.00;;;;;;;14.90;100.00;98505.75;4900785;29;20334;-63
2022/10/16 03:42:17;;;;;;;2.40;0.83;;;;;;;14.95;100.00;98515.75;4900555;29;20243;-63
2022/10/16 03:44:44;;;;;;;4.30;1.10;;;;;;;14.93;100.00;98501.97;4922422;29;20586;-63
2022/10/16 03:47:10;;;;;;;5.13;0.90;;;;;;;14.91;100.00;98499.50;4900314;29;20702;-63
2022/10/16 03:49:37;;;;;;;3.07;0.90;;;;;;;14.95;100.00;98493.88;4893530;29;20627;-63
2022/10/16 03:52:03;;;;;;;2.67;0.80;;;;;;;14.99;100.00;98498.63;4897461;29;20811;-63
2022/10/16 03:54:30;;;;;;;1.17;0.90;;;;;;;15.05;100.00;98504.94;4900178;29;20229;-63
2022/10/16 03:56:58;;;;;;;3.13;0.83;;;;;;;15.09;100.00;98510.66;4901774;29;20288;-63
2022/10/16 03:59:24;;;;;;;4.87;1.00;;;;;;;15.10;100.00;98515.72;4894393;29;20239;-63
2022/10/16 04:01:51;;;;;;;4.77;1.20;;;;;;;15.03;100.00;98520.91;4901433;29;20246;-63
2022/10/16 04:04:17;;;;;;;3.17;0.93;;;;;;;14.99;100.00;98521.44;4898112;29;20232;-63
2022/10/16 04:06:44;;;;;;;3.03;1.00;;;;;;;14.86;100.00;98520.25;4899923;29;20660;-63
2022/10/16 04:09:11;;;;;;;6.40;1.77;;;;;;;14.77;100.00;98524.00;4896681;29;20303;-63
2022/10/16 04:11:37;;;;;;;4.60;1.40;;;;;;;14.66;100.00;98535.72;4900464;29;20231;-63
2022/10/16 04:14:05;;;;;;;7.67;1.20;;;;;;;14.58;100.00;98541.88;4899568;29;20295;-63
2022/10/16 04:16:32;;;;;;;3.23;1.60;;;;;;;14.54;100.00;98547.66;4897486;29;20311;-63
2022/10/16 04:18:58;;;;;;;7.63;1.37;;;;;;;14.51;100.00;98553.25;4899092;29;20258;-63
2022/10/16 04:21:25;;;;;;;7.40;1.57;;;;;;;14.49;100.00;98555.25;4897339;29;20709;-63
2022/10/16 04:23:51;;;;;;;6.43;1.60;;;;;;;14.40;100.00;98552.69;4900782;29;20403;-64
2022/10/16 04:26:18;;;;;;;7.40;1.40;;;;;;;14.33;100.00;98549.13;4897900;29;20651;-64
2022/10/16 04:28:44;;;;;;;7.23;2.30;;;;;;;14.35;100.00;98556.84;4900580;29;20239;-64
2022/10/16 04:31:12;;;;;;;9.37;1.90;;;;;;;14.27;100.00;98558.56;4900379;29;20247;-64
2022/10/16 04:33:39;;;;;;;2.47;1.47;;;;;;;14.28;100.00;98564.63;4902038;29;20675;-64
2022/10/16 04:36:06;;;;;;;3.50;1.83;;;;;;;14.24;100.00;98565.97;4896708;29;20232;-63
2022/10/16 04:38:33;;;;;;;3.93;1.70;;;;;;;14.21;100.00;98564.50;4896296;29;20236;-63
2022/10/16 04:40:59;;;;;;;2.83;1.57;;;;;;;14.20;100.00;98552.38;4899273;29;20240;-63
2022/10/16 04:43:26;;;;;;;4.30;1.60;;;;;;;14.21;100.00;98553.19;4887082;29;20626;-64
2022/10/16 04:45:54;;;;;;;4.47;1.30;;;;;;;14.19;100.00;98552.56;4893825;29;20243;-64
2022/10/16 04:48:22;;;;;;;3.60;1.43;;;;;;;14.15;100.00;98565.22;4896352;29;20625;-64
2022/10/16 04:50:49;;;;;;;7.03;1.60;;;;;;;14.10;100.00;98575.41;4905242;29;20228;-64
2022/10/16 04:53:15;;;;;;;8.83;1.70;;;;;;;14.07;100.00;98591.50;4898753;29;20221;-64
2022/10/16 04:55:43;;;;;;;3.83;1.60;;;;;;;13.99;100.00;98582.69;4899397;29;20240;-64
2022/10/16 04:58:09;;;;;;;4.60;1.40;;;;;;;13.87;100.00;98584.91;4896654;29;20346;-64
2022/10/16 05:00:38;;;;;;;12.00;3.10;;;;;;;13.85;100.00;98583.44;4903531;29;20291;-64
2022/10/16 05:03:07;;;;;;;4.73;1.47;;;;;;;13.77;100.00;98586.94;4898942;29;20769;-64
2022/10/16 05:05:35;;;;;;;4.80;1.40;;;;;;;13.73;100.00;98598.75;4905909;29;20232;-64
2022/10/16 05:08:02;;;;;;;2.03;1.27;;;;;;;13.72;100.00;98591.88;4902454;29;20241;-64
2022/10/16 05:10:29;;;;;;;4.30;1.37;;;;;;;13.65;100.00;98589.13;4902752;29;20268;-64
2022/10/16 05:12:55;;;;;;;6.17;1.30;;;;;;;13.65;100.00;98593.56;4905491;29;20241;-64
2022/10/16 05:15:24;;;;;;;5.00;1.40;;;;;;;13.67;100.00;98596.81;4901337;29;20773;-64
2022/10/16 05:17:53;;;;;;;9.77;1.60;;;;;;;13.69;100.00;98600.09;4903609;29;20249;-64
2022/10/16 05:20:23;;;;;;;7.70;1.33;;;;;;;13.69;100.00;98605.34;4897936;29;20224;-63
2022/10/16 05:22:51;;;;;;;9.07;1.47;;;;;;;13.71;100.00;98619.09;4902679;29;20238;-64
2022/10/16 05:25:18;;;;;;;4.93;3.00;;;;;;;13.73;100.00;98614.50;4900163;29;20239;-63
2022/10/16 05:27:48;;;;;;;3.37;2.40;;;;;;;13.74;100.00;98610.88;4903820;29;20588;-63
2022/10/16 05:30:15;;;;;;;3.63;2.63;;;;;;;13.72;100.00;98607.63;4901864;29;20227;-63
2022/10/16 05:32:41;;;;;;;4.53;1.60;;;;;;;13.71;100.00;98606.81;4905069;29;20243;-63
2022/10/16 05:35:08;;;;;;;5.23;1.70;;;;;;;13.69;100.00;98613.22;4900682;29;20231;-63
2022/10/16 05:37:35;;;;;;;5.03;2.03;;;;;;;13.69;100.00;98616.66;4898399;29;20286;-63
2022/10/16 05:40:04;;;;;;;7.43;2.70;;;;;;;13.69;100.00;98611.41;4901812;29;20267;-63
2022/10/16 05:42:31;;;;;;;4.30;1.97;;;;;;;13.67;100.00;98610.78;4905227;29;20693;-63
2022/10/16 05:44:58;;;;;;;5.80;1.70;;;;;;;13.63;100.00;98614.72;4901878;29;20233;-63
2022/10/16 05:47:24;;;;;;;6.40;1.73;;;;;;;13.67;100.00;98612.56;4900058;29;20335;-63
2022/10/16 05:49:51;;;;;;;7.17;2.30;;;;;;;13.66;100.00;98603.88;4901640;29;20323;-63
2022/10/16 05:52:17;;;;;;;8.70;1.60;;;;;;;13.70;100.00;98604.34;4899216;29;20628;-63
2022/10/16 05:54:44;;;;;;;4.27;1.50;;;;;;;13.66;100.00;98606.50;4905137;29;20240;-63
2022/10/16 05:57:12;;;;;;;8.13;1.80;;;;;;;13.69;100.00;98608.78;4899364;29;20238;-63
2022/10/16 05:59:39;;;;;;;5.47;1.67;;;;;;;13.69;100.00;98621.06;4896414;29;20291;-63
2022/10/16 06:02:06;;;;;;;10.67;1.90;;;;;;;13.70;100.00;98626.16;4904567;29;20293;-63
2022/10/16 06:04:32;;;;;;;4.30;1.80;;;;;;;13.71;100.00;98633.06;4903644;29;20232;-63
2022/10/16 06:07:01;;;;;;;4.37;2.67;;;;;;;13.71;100.00;98638.28;4904447;29;20235;-63
2022/10/16 06:09:27;;;;;;;10.50;2.90;;;;;;;13.77;100.00;98635.97;4898934;29;20263;-63
2022/10/16 06:11:54;;;;;;;5.23;1.90;;;;;;;13.77;100.00;98621.03;4900385;29;20228;-63
2022/10/16 06:14:22;;;;;;;2.90;1.60;;;;;;;13.79;100.00;98615.59;4899129;29;20256;-63
2022/10/16 06:16:48;;;;;;;4.73;1.57;;;;;;;13.82;100.00;98623.97;4901266;29;20244;-63
2022/10/16 06:19:16;;;;;;;3.07;1.67;;;;;;;13.88;100.00;98622.44;4896716;29;20297;-63
2022/10/16 06:21:42;;;;;;;4.57;1.60;;;;;;;13.88;100.00;98625.91;4900929;29;20278;-63
2022/10/16 06:24:09;;;;;;;4.83;1.60;;;;;;;13.92;100.00;98618.50;4899987;29;20598;-63
2022/10/16 06:26:36;;;;;;;3.93;1.37;;;;;;;13.94;100.00;98615.72;4900431;29;20363;-63
2022/10/16 06:29:02;;;;;;;5.77;1.57;;;;;;;13.95;100.00;98617.34;4898325;29;20231;-63
2022/10/16 06:31:33;;;;;;;8.20;1.97;;;;;;;13.99;100.00;98632.56;4901807;29;20298;-63
2022/10/16 06:34:00;;;;;;;6.37;1.70;;;;;;;13.97;100.00;98634.53;4904262;29;20709;-63
2022/10/16 06:36:27;;;;;;;5.00;1.57;;;;;;;13.99;100.00;98632.56;4896643;29;20242;-63
2022/10/16 06:38:54;;;;;;;10.47;1.93;;;;;;;14.03;100.00;98643.53;4906006;29;20242;-63
2022/10/16 06:41:23;;;;;;;8.87;3.47;;;;;;;14.01;100.00;98643.69;4898825;29;20270;-63
2022/10/16 06:43:50;;;;;;;9.10;2.97;;;;;;;14.03;100.00;98638.28;4903073;29;20224;-63
2022/10/16 06:46:19;;;;;;;9.43;2.60;;;;;;;14.07;100.00;98652.72;4898910;29;20227;-63
2022/10/16 06:48:47;;;;;;;6.73;2.60;;;;;;;14.08;100.00;98648.25;4902588;29;20231;-64
2022/10/16 06:51:15;;;;;;;5.60;2.50;;;;;;;14.10;100.00;98647.13;4899300;29;20711;-64
2022/10/16 06:53:43;;;;;;;5.60;2.40;;;;;;;14.11;100.00;98659.25;4904438;29;20709;-64
2022/10/16 06:56:12;;;;;;;4.90;2.70;;;;;;;14.13;100.00;98653.81;4897757;29;20601;-64
2022/10/16 06:58:38;;;;;;;5.30;3.27;;;;;;;14.21;100.00;98653.75;4901786;29;20424;-64
2022/10/16 07:01:06;;;;;;;3.03;2.30;;;;;;;14.28;100.00;98662.59;4896806;29;20343;-64
2022/10/16 07:03:33;;;;;;;8.90;2.87;;;;;;;14.35;100.00;98659.25;4903052;29;20236;-63
2022/10/16 07:06:04;;;;;;;6.70;2.80;;;;;;;14.41;100.00;98666.44;4904631;29;20227;-63
2022/10/16 07:08:32;;;;;;;8.47;3.13;;;;;;;14.53;100.00;98664.22;4891843;29;20278;-63
2022/10/16 07:11:03;;;;;;;4.03;2.00;;;;;;;14.68;100.00;98664.28;4905803;29;20247;-63
2022/10/16 07:13:29;;;;;;;2.50;1.80;;;;;;;14.86;100.00;98671.88;4898129;29;20709;-63
2022/10/16 07:15:57;;;;;;;3.80;2.03;;;;;;;15.02;100.00;98668.28;4902726;29;20232;-63
2022/10/16 07:18:26;;;;;;;5.07;2.07;;;;;;;15.18;100.00;98678.63;4899943;29;20252;-63
2022/10/16 07:20:53;;;;;;;5.10;1.50;;;;;;;15.31;100.00;98667.53;4904429;29;20288;-63
2022/10/16 07:23:21;;;;;;;3.60;1.20;;;;;;;15.50;100.00;98663.53;4897987;29;20240;-63
2022/10/16 07:25:54;;;;;;;1.23;0.93;;;;;;;15.80;100.00;98670.56;4898884;29;20247;-63
2022/10/16 07:28:21;;;;;;;4.83;1.33;;;;;;;15.95;100.00;98686.34;4898723;29;20236;-63
2022/10/16 07:30:48;;;;;;;3.83;1.23;;;;;;;16.06;100.00;98693.78;4905706;29;20314;-63
2022/10/16 07:33:18;;;;;;;1.47;1.30;;;;;;;16.15;99.04;98701.59;4899206;29;20229;-63
2022/10/16 07:35:52;;;;;;;2.10;1.63;;;;;;;16.18;99.40;98696.78;4894764;29;20246;-63
2022/10/16 07:38:19;;;;;;;7.40;1.53;;;;;;;16.26;100.00;98701.09;4897908;29;20236;-63
2022/10/16 07:40:47;;;;;;;3.03;1.23;;;;;;;16.29;100.00;98710.47;4899765;29;20229;-64
2022/10/16 07:43:14;;;;;;;5.50;1.77;;;;;;;16.26;100.00;98724.00;4899011;29;21198;-63
2022/10/16 07:45:48;;;;;;;3.60;2.43;;;;;;;16.28;100.00;98737.81;4902801;29;20236;-63
2022/10/16 07:48:14;;;;;;;5.57;2.50;;;;;;;16.31;100.00;98740.88;4894598;29;20243;-63
2022/10/16 07:50:41;;;;;;;4.47;2.57;;;;;;;16.32;100.00;98742.50;4896192;29;20297;-63
2022/10/16 07:53:08;;;;;;;5.53;2.03;;;;;;;16.25;100.00;98740.81;4895428;29;20716;-63
2022/10/16 07:55:34;;;;;;;4.30;2.30;;;;;;;16.26;100.00;98731.91;4899703;29;20711;-63
2022/10/16 07:58:02;;;;;;;7.83;2.50;;;;;;;16.18;100.00;98733.66;4898223;29;20246;-63
2022/10/16 08:00:29;;;;;;;4.33;1.97;;;;;;;16.18;100.00;98735.44;4901855;29;20312;-63
2022/10/16 08:02:56;;;;;;;5.30;2.00;;;;;;;16.18;100.00;98730.19;4901132;29;20296;-63
2022/10/16 08:05:23;;;;;;;4.83;2.20;;;;;;;16.18;100.00;98728.38;4896454;29;20687;-63
2022/10/16 08:07:51;;;;;;;4.07;1.73;;;;;;;16.22;100.00;98720.91;4899969;29;20719;-63
2022/10/16 08:10:19;;;;;;;4.70;1.97;;;;;;;16.28;100.00;98720.16;4896830;29;20602;-63
2022/10/16 08:12:46;;;;;;;8.43;2.40;;;;;;;16.26;100.00;98722.16;4901207;29;20295;-63
2022/10/16 08:15:14;;;;;;;3.37;2.20;;;;;;;16.36;100.00;98727.97;4895311;29;20236;-63
2022/10/16 08:17:40;;;;;;;12.10;2.13;;;;;;;16.53;100.00;98725.91;4901313;29;20263;-63
2022/10/16 08:20:08;;;;;;;5.50;1.90;;;;;;;16.81;100.00;98727.00;4896566;29;20238;-63
2022/10/16 08:22:35;;;;;;;8.23;2.03;;;;;;;17.15;100.00;98740.50;4898085;29;20295;-63
2022/10/16 08:25:01;;;;;;;11.50;2.40;;;;;;;17.31;100.00;98739.38;4897494;29;20249;-63
2022/10/16 08:27:32;;;;;;;4.53;1.30;;;;;;;17.41;100.00;98730.16;4899158;29;20293;-63
2022/10/16 08:29:59;;;;;;;6.07;1.37;;;;;;;17.61;100.00;98731.25;4902055;29;20236;-63
2022/10/16 08:32:27;;;;;;;2.23;1.50;;;;;;;17.79;98.07;98738.66;4898924;29;20307;-63
2022/10/16 08:34:53;;;;;;;3.53;1.67;;;;;;;18.02;96.09;98748.97;4901373;29;20295;-63
2022/10/16 08:37:20;;;;;;;6.37;2.67;;;;;;;18.03;97.62;98757.72;4898386;29;20290;-63
2022/10/16 08:39:46;;;;;;;4.07;2.33;;;;;;;18.42;98.49;98749.13;4906117;29;20294;-63
2022/10/16 08:42:23;;;;;;;4.70;1.90;;;;;;;18.67;93.39;98745.94;4901069;29;20324;-64
2022/10/16 08:45:10;;;;;;;10.80;2.30;;;;;;;18.82;89.35;98747.59;4905334;29;20253;-64
2022/10/16 08:47:48;;;;;;;6.77;1.97;;;;;;;19.13;89.30;98743.53;4900416;29;20237;-64
2022/10/16 08:50:23;;;;;;;2.77;1.70;;;;;;;19.29;87.24;98759.00;4900595;29;20239;-64
2022/10/16 08:52:50;;;;;;;6.27;2.40;;;;;;;19.42;88.41;98765.31;4904312;29;20627;-64
2022/10/16 08:55:29;;;;;;;6.30;2.70;;;;;;;19.56;88.49;98768.78;4902066;29;20294;-64
2022/10/16 08:57:56;;;;;;;8.40;2.90;;;;;;;19.61;88.91;98769.78;4903366;29;20244;-64
2022/10/16 09:00:23;;;;;;;6.60;2.90;;;;;;;19.66;87.59;98771.00;4903386;29;20236;-64
2022/10/16 09:02:58;;;;;;;4.60;2.70;;;;;;;19.68;83.70;98782.19;4902012;29;20243;-64
2022/10/16 09:05:39;;;;;;;3.47;2.10;;;;;;;19.86;86.06;98776.25;4900269;29;20855;-64
2022/10/16 09:08:15;;;;;;;7.30;1.97;;;;;;;19.93;84.03;98777.06;4902622;29;20360;-64
2022/10/16 09:10:52;;;;;;;3.87;2.53;;;;;;;19.95;80.35;98777.69;4904017;29;20235;-64
2022/10/16 09:13:25;;;;;;;3.90;2.27;;;;;;;20.15;80.30;98782.91;4901396;29;20235;-64
2022/10/16 09:16:00;;;;;;;3.60;1.93;;;;;;;20.10;79.64;98790.69;4906264;29;20233;-64
2022/10/16 09:18:38;;;;;;;3.53;1.87;;;;;;;20.47;75.47;98787.47;4901253;29;20235;-64
2022/10/16 09:21:11;;;;;;;3.07;1.90;;;;;;;20.77;74.85;98795.72;4900440;29;20243;-64
2022/10/16 09:23:38;;;;;;;5.20;2.27;;;;;;;20.96;74.65;98794.97;4908063;29;20244;-64
2022/10/16 09:26:06;;;;;;;5.97;2.13;;;;;;;20.74;76.78;98795.28;4904777;29;20239;-64
2022/10/16 09:28:33;;;;;;;8.07;2.17;;;;;;;20.33;78.28;98813.22;4893920;29;20232;-64
2022/10/16 09:30:59;;;;;;;5.90;2.20;;;;;;;19.88;79.95;98813.94;4904030;29;20282;-64
2022/10/16 09:33:34;;;;;;;2.93;1.97;;;;;;;19.18;82.97;98821.31;4901240;29;20237;-64
2022/10/16 09:36:00;;;;;;;4.53;2.33;;;;;;;19.37;85.31;98828.63;4903559;29;20290;-64
2022/10/16 09:38:29;;;;;;;7.83;2.30;;;;;;;19.46;86.04;98833.56;4900218;29;20251;-64
2022/10/16 09:40:57;;;;;;;5.87;2.17;;;;;;;19.52;85.96;98839.06;4903140;29;20327;-64
2022/10/16 09:43:30;;;;;;;6.03;2.37;;;;;;;19.48;86.09;98835.97;4900314;29;20797;-64
2022/10/16 09:45:59;;;;;;;7.27;2.60;;;;;;;19.52;85.05;98829.25;4901782;29;20646;-64
2022/10/16 09:48:29;;;;;;;5.60;2.43;;;;;;;19.13;85.43;98846.72;4899624;29;20646;-64
2022/10/16 09:51:05;;;;;;;7.53;2.63;;;;;;;19.31;84.97;98846.16;4903561;29;20230;-64
2022/10/16 09:53:41;;;;;;;8.43;2.57;;;;;;;19.20;86.28;98844.13;4901865;29;20326;-64
2022/10/16 09:56:10;;;;;;;7.73;2.63;;;;;;;19.24;85.26;98853.28;4900424;29;20240;-64
2022/10/16 09:58:39;;;;;;;8.10;2.60;;;;;;;19.15;84.89;98850.81;4902201;29;20242;-64
2022/10/16 10:01:06;;;;;;;9.37;2.50;;;;;;;19.00;86.75;98850.19;4901313;29;20247;-63
2022/10/16 10:03:38;;;;;;;9.03;2.30;;;;;;;18.94;87.20;98861.53;4906235;29;20229;-64
2022/10/16 10:06:17;;;;;;;6.23;2.20;;;;;;;18.89;87.10;98859.50;4899442;29;20713;-64
2022/10/16 10:08:55;;;;;;;5.47;2.23;;;;;;;18.83;88.59;98849.72;4901977;29;20231;-64
2022/10/16 10:11:37;;;;;;;3.30;2.20;;;;;;;18.57;89.53;98861.81;4900305;29;20247;-64
2022/10/16 10:14:09;;;;;;;4.77;2.37;;;;;;;18.62;90.99;98862.03;4904495;29;20239;-64
2022/10/16 10:16:36;;;;;;;5.37;2.17;;;;;;;18.65;89.33;98864.28;4900952;29;20701;-63
2022/10/16 10:19:03;;;;;;;5.27;2.60;;;;;;;18.68;88.98;98863.91;4901124;29;20247;-64
2022/10/16 10:21:34;;;;;;;6.20;1.90;;;;;;;19.06;87.70;98870.53;4900281;29;20250;-64
2022/10/16 10:24:00;;;;;;;2.70;1.53;;;;;;;19.22;86.39;98868.53;4902242;29;20658;-64
2022/10/16 10:26:30;;;;;;;9.47;2.00;;;;;;;19.52;86.29;98866.31;4903796;29;20776;-64
2022/10/16 10:29:07;;;;;;;4.43;1.80;;;;;;;19.79;84.26;98870.78;4892136;29;20284;-64
2022/10/16 10:31:44;;;;;;;9.13;1.70;;;;;;;19.87;84.44;98876.72;4919889;29;20242;-65
2022/10/16 10:34:26;;;;;;;7.30;2.00;;;;;;;20.19;81.04;98871.56;4900770;29;20232;-65
2022/10/16 10:37:09;;;;;;;5.57;2.07;;;;;;;20.27;82.74;98881.16;4901011;29;20271;-65
2022/10/16 10:39:43;;;;;;;4.07;1.93;;;;;;;20.40;80.41;98880.28;4899228;29;20232;-65
2022/10/16 10:42:23;;;;;;;5.53;2.03;;;;;;;20.66;79.05;98883.88;4896589;29;20258;-65
2022/10/16 10:45:17;;;;;;;8.23;3.00;;;;;;;20.71;80.86;98889.38;4901428;29;20591;-64
2022/10/16 10:47:52;;;;;;;5.60;2.40;;;;;;;20.86;77.05;98889.13;4901335;29;20228;-65
2022/10/16 10:50:24;;;;;;;7.90;2.30;;;;;;;20.86;78.58;98890.97;4897582;29;20232;-65
2022/10/16 10:53:02;;;;;;;4.77;2.30;;;;;;;21.18;74.74;98888.34;4900830;29;20238;-65
2022/10/16 10:55:40;;;;;;;7.13;2.03;;;;;;;21.18;76.07;98883.03;4901987;29;20245;-65
2022/10/16 10:58:42;;;;;;;8.20;2.17;;;;;;;21.13;75.76;98870.41;4899099;29;20299;-65
2022/10/16 11:01:11;;;;;;;6.60;2.00;;;;;;;21.22;79.02;98874.41;4898653;29;20301;-65
2022/10/16 11:03:58;;;;;;;4.77;1.93;;;;;;;21.43;77.24;98880.41;4903093;29;20238;-65
2022/10/16 11:06:30;;;;;;;3.00;2.20;;;;;;;21.43;74.32;98866.31;4898677;29;20239;-65
2022/10/16 11:09:03;;;;;;;4.00;1.80;;;;;;;21.10;71.47;98865.50;4902821;29;20787;-65
2022/10/16 11:11:36;;;;;;;3.47;1.70;;;;;;;21.16;68.90;98864.66;4900258;29;20240;-65
2022/10/16 11:14:07;;;;;;;4.03;1.70;;;;;;;21.25;73.47;98865.19;4898725;29;20900;-65
2022/10/16 11:16:36;;;;;;;10.20;2.40;;;;;;;21.06;82.46;98865.13;4898949;29;20250;-66
2022/10/16 11:19:12;;;;;;;4.20;1.60;;;;;;;21.11;78.05;98859.19;4896372;29;20309;-65
2022/10/16 11:21:48;;;;;;;3.33;1.70;;;;;;;21.29;78.80;98854.97;4892090;29;20272;-65
2022/10/16 11:24:23;;;;;;;3.43;2.00;;;;;;;21.38;77.61;98859.78;4918684;29;20234;-65
2022/10/16 11:26:51;;;;;;;5.07;1.43;;;;;;;21.55;78.46;98855.81;4901511;29;20240;-65
2022/10/16 11:29:24;;;;;;;2.97;1.60;;;;;;;21.58;71.44;98853.53;4898997;29;20237;-65
2022/10/16 11:31:55;;;;;;;0.00;0.00;;;;;;;21.63;66.56;98855.56;4900151;29;20239;-65
2022/10/16 11:34:29;;;;;;;0.00;0.00;;;;;;;21.87;65.96;98853.91;4898244;29;20245;-64
2022/10/16 11:37:02;;;;;;;0.00;0.00;;;;;;;22.25;58.88;98863.56;4897580;29;20229;-64
2022/10/16 11:39:31;;;;;;;0.00;0.00;;;;;;;22.52;63.33;98857.94;4899076;29;20233;-64